createdAt,value
2022-11-30T00:01:20.565Z,12.97
2022-11-30T00:03:47.903Z,12.89
2022-11-30T00:06:17.104Z,12.85
2022-11-30T00:08:43.847Z,12.78
2022-11-30T00:11:15.645Z,12.73
2022-11-30T00:13:42.191Z,12.71
2022-11-30T00:16:09.738Z,12.67
2022-11-30T00:18:36.989Z,12.64
2022-11-30T00:21:05.958Z,12.62
2022-11-30T00:23:37.428Z,12.60
2022-11-30T00:26:07.050Z,12.59
2022-11-30T00:28:35.082Z,12.63
2022-11-30T00:31:07.495Z,12.64
2022-11-30T00:33:37.374Z,12.67
2022-11-30T00:36:09.052Z,12.66
2022-11-30T00:38:36.007Z,12.70
2022-11-30T00:41:03.291Z,12.73
2022-11-30T00:43:30.215Z,12.77
2022-11-30T00:45:57.246Z,12.79
2022-11-30T00:48:23.907Z,12.76
2022-11-30T00:50:51.088Z,12.77
2022-11-30T00:53:18.831Z,12.79
2022-11-30T00:55:45.960Z,12.81
2022-11-30T00:58:12.530Z,12.81
2022-11-30T01:00:40.320Z,12.81
2022-11-30T01:03:07.233Z,12.81
2022-11-30T01:05:34.613Z,12.82
2022-11-30T01:08:03.269Z,12.82
2022-11-30T01:10:30.168Z,12.80
2022-11-30T01:12:57.057Z,12.79
2022-11-30T01:15:23.867Z,12.75
2022-11-30T01:17:50.396Z,12.72
2022-11-30T01:20:17.278Z,12.71
2022-11-30T01:22:43.849Z,12.69
2022-11-30T01:25:11.004Z,12.66
2022-11-30T01:27:37.470Z,12.63
2022-11-30T01:30:05.463Z,12.61
2022-11-30T01:32:32.235Z,12.58
2022-11-30T01:34:58.735Z,12.59
2022-11-30T01:37:25.361Z,12.59
2022-11-30T01:39:51.901Z,12.56
2022-11-30T01:42:20.263Z,12.55
2022-11-30T01:44:51.173Z,12.55
2022-11-30T01:47:20.045Z,12.54
2022-11-30T01:49:49.840Z,12.55
2022-11-30T01:52:51.524Z,12.55
2022-11-30T01:55:36.199Z,12.53
2022-11-30T01:58:11.368Z,12.54
2022-11-30T02:00:43.184Z,12.51
2022-11-30T02:03:41.008Z,12.49
2022-11-30T02:06:08.263Z,12.50
2022-11-30T02:08:34.896Z,12.49
2022-11-30T02:11:06.058Z,12.49
2022-11-30T02:13:48.127Z,12.50
2022-11-30T02:16:58.408Z,12.50
2022-11-30T02:19:43.542Z,12.48
2022-11-30T02:22:42.949Z,12.46
2022-11-30T02:25:18.214Z,12.44
2022-11-30T02:27:56.685Z,12.41
2022-11-30T02:30:24.275Z,12.39
2022-11-30T02:32:58.228Z,12.37
2022-11-30T02:35:29.913Z,12.37
2022-11-30T02:37:58.126Z,12.37
2022-11-30T02:40:24.734Z,12.37
2022-11-30T02:42:54.090Z,12.39
2022-11-30T02:45:29.795Z,12.40
2022-11-30T02:48:09.693Z,12.41
2022-11-30T02:50:44.667Z,12.44
2022-11-30T02:53:11.510Z,12.45
2022-11-30T02:55:38.031Z,12.45
2022-11-30T02:58:05.467Z,12.45
2022-11-30T03:00:32.173Z,12.43
2022-11-30T03:02:58.697Z,12.43
2022-11-30T03:05:25.216Z,12.43
2022-11-30T03:07:51.720Z,12.41
2022-11-30T03:10:18.390Z,12.40
2022-11-30T03:12:44.958Z,12.38
2022-11-30T03:15:11.548Z,12.37
2022-11-30T03:17:38.060Z,12.35
2022-11-30T03:20:05.261Z,12.34
2022-11-30T03:22:31.711Z,12.29
2022-11-30T03:24:58.246Z,12.28
2022-11-30T03:27:24.772Z,12.27
2022-11-30T03:29:51.273Z,12.24
2022-11-30T03:32:18.896Z,12.21
2022-11-30T03:34:45.726Z,12.16
2022-11-30T03:37:12.376Z,12.14
2022-11-30T03:39:38.828Z,12.14
2022-11-30T03:42:05.442Z,12.13
2022-11-30T03:44:31.903Z,12.12
2022-11-30T03:46:58.458Z,12.09
2022-11-30T03:49:24.930Z,12.11
2022-11-30T03:51:51.376Z,12.09
2022-11-30T03:54:17.983Z,12.08
2022-11-30T03:56:44.495Z,12.08
2022-11-30T03:59:11.006Z,12.08
2022-11-30T04:01:41.967Z,12.07
2022-11-30T04:04:08.533Z,12.03
2022-11-30T04:06:35.064Z,12.01
2022-11-30T04:09:01.741Z,12.01
2022-11-30T04:11:29.432Z,12.00
2022-11-30T04:13:55.899Z,11.98
2022-11-30T04:16:22.805Z,11.98
2022-11-30T04:18:49.380Z,11.97
2022-11-30T04:21:15.866Z,11.93
2022-11-30T04:23:42.324Z,11.92
2022-11-30T04:26:12.189Z,11.91
2022-11-30T04:28:38.787Z,11.89
2022-11-30T04:31:06.588Z,11.89
2022-11-30T04:33:33.402Z,11.88
2022-11-30T04:36:03.327Z,11.88
2022-11-30T04:38:30.347Z,11.86
2022-11-30T04:40:57.020Z,11.82
2022-11-30T04:43:23.911Z,11.81
2022-11-30T04:45:50.624Z,11.79
2022-11-30T04:48:18.811Z,11.76
2022-11-30T04:50:45.298Z,11.75
2022-11-30T04:53:12.313Z,11.71
2022-11-30T04:55:40.954Z,11.70
2022-11-30T04:58:07.820Z,11.66
2022-11-30T05:00:35.282Z,11.63
2022-11-30T05:03:02.051Z,11.63
2022-11-30T05:05:28.615Z,11.61
2022-11-30T05:07:57.560Z,11.60
2022-11-30T05:10:24.988Z,11.61
2022-11-30T05:12:51.917Z,11.62
2022-11-30T05:15:18.602Z,11.62
2022-11-30T05:17:45.162Z,11.62
2022-11-30T05:20:11.858Z,11.60
2022-11-30T05:22:38.396Z,11.58
2022-11-30T05:25:05.176Z,11.56
2022-11-30T05:27:31.727Z,11.52
2022-11-30T05:29:59.007Z,11.48
2022-11-30T05:32:25.503Z,11.44
2022-11-30T05:34:52.307Z,11.41
2022-11-30T05:37:19.488Z,11.38
2022-11-30T05:39:46.080Z,11.34
2022-11-30T05:42:12.620Z,11.31
2022-11-30T05:44:39.084Z,11.28
2022-11-30T05:47:05.674Z,11.25
2022-11-30T05:49:32.237Z,11.22
2022-11-30T05:51:58.757Z,11.18
2022-11-30T05:54:25.225Z,11.13
2022-11-30T05:56:54.945Z,11.09
2022-11-30T05:59:25.864Z,11.06
2022-11-30T06:01:53.144Z,11.04
2022-11-30T06:04:20.104Z,11.01
2022-11-30T06:06:46.874Z,10.98
2022-11-30T06:09:15.712Z,10.97
2022-11-30T06:11:42.211Z,10.94
2022-11-30T06:14:08.974Z,10.93
2022-11-30T06:16:35.586Z,10.90
2022-11-30T06:19:02.120Z,10.88
2022-11-30T06:21:28.591Z,10.85
2022-11-30T06:23:55.155Z,10.80
2022-11-30T06:26:21.637Z,10.78
2022-11-30T06:28:48.969Z,10.76
2022-11-30T06:31:16.205Z,10.72
2022-11-30T06:33:43.173Z,10.70
2022-11-30T06:36:09.775Z,10.66
2022-11-30T06:38:36.382Z,10.64
2022-11-30T06:41:09.833Z,10.61
2022-11-30T06:43:38.361Z,10.58
2022-11-30T06:46:06.893Z,10.55
2022-11-30T06:48:34.733Z,10.52
2022-11-30T06:51:08.879Z,10.49
2022-11-30T06:53:36.186Z,10.47
2022-11-30T06:56:10.361Z,10.45
2022-11-30T06:58:39.071Z,10.45
2022-11-30T07:01:08.045Z,10.44
2022-11-30T07:03:34.680Z,10.43
2022-11-30T07:06:01.193Z,10.41
2022-11-30T07:08:27.687Z,10.40
2022-11-30T07:10:54.257Z,10.38
2022-11-30T07:13:20.755Z,10.35
2022-11-30T07:15:47.346Z,10.33
2022-11-30T07:18:14.003Z,10.29
2022-11-30T07:20:40.544Z,10.27
2022-11-30T07:23:25.844Z,10.25
2022-11-30T07:26:06.279Z,10.22
2022-11-30T07:28:38.455Z,10.19
2022-11-30T07:31:16.632Z,10.17
2022-11-30T07:33:46.281Z,10.15
2022-11-30T07:36:13.155Z,10.12
2022-11-30T07:38:39.740Z,10.09
2022-11-30T07:41:06.708Z,10.06
2022-11-30T07:43:33.279Z,10.03
2022-11-30T07:46:18.638Z,9.96
2022-11-30T07:48:46.611Z,9.92
2022-11-30T07:51:21.610Z,9.88
2022-11-30T07:53:48.413Z,9.85
2022-11-30T07:56:18.279Z,9.81
2022-11-30T07:58:45.163Z,9.78
2022-11-30T08:01:14.864Z,9.76
2022-11-30T08:03:41.931Z,9.77
2022-11-30T08:06:13.858Z,9.77
2022-11-30T08:08:44.927Z,9.76
2022-11-30T08:11:14.346Z,9.78
2022-11-30T08:13:41.843Z,9.79
2022-11-30T08:16:12.925Z,9.80
2022-11-30T08:18:40.894Z,9.82
2022-11-30T08:21:09.030Z,9.85
2022-11-30T08:23:40.852Z,9.87
2022-11-30T08:26:29.366Z,9.86
2022-11-30T08:28:57.020Z,9.86
2022-11-30T08:31:26.988Z,9.87
2022-11-30T08:34:02.084Z,9.90
2022-11-30T08:36:29.668Z,9.93
2022-11-30T08:39:01.002Z,9.95
2022-11-30T08:41:27.988Z,9.99
2022-11-30T08:43:54.922Z,10.03
2022-11-30T08:49:25.487Z,10.12
2022-11-30T08:57:33.413Z,10.25
2022-11-30T08:59:59.852Z,10.27
2022-11-30T09:02:26.465Z,10.32
2022-11-30T09:04:53.529Z,10.35
2022-11-30T09:07:20.258Z,10.41
2022-11-30T09:09:47.295Z,10.44
2022-11-30T09:12:13.720Z,10.49
2022-11-30T09:14:40.187Z,10.53
2022-11-30T09:17:06.632Z,10.56
2022-11-30T09:19:33.191Z,10.59
2022-11-30T09:22:00.474Z,10.60
2022-11-30T09:24:26.996Z,10.63
2022-11-30T09:26:56.725Z,10.67
2022-11-30T09:29:23.860Z,10.68
2022-11-30T09:31:51.658Z,10.72
2022-11-30T09:34:18.281Z,10.75
2022-11-30T09:36:44.800Z,10.78
2022-11-30T09:39:13.887Z,10.81
2022-11-30T09:41:53.917Z,10.85
2022-11-30T09:44:23.392Z,10.88
2022-11-30T09:47:05.030Z,10.91
2022-11-30T09:49:37.256Z,10.92
2022-11-30T09:52:09.782Z,10.93
2022-11-30T09:54:38.723Z,10.94
2022-11-30T09:57:32.515Z,10.94
2022-11-30T10:00:02.465Z,10.94
2022-11-30T10:02:39.537Z,10.96
2022-11-30T10:05:15.756Z,10.96
2022-11-30T10:07:51.559Z,10.99
2022-11-30T10:10:35.897Z,11.01
2022-11-30T10:13:05.642Z,11.06
2022-11-30T10:15:44.424Z,11.09
2022-11-30T10:18:23.229Z,11.10
2022-11-30T10:21:05.306Z,11.09
2022-11-30T10:23:58.660Z,11.11
2022-11-30T10:26:38.150Z,11.12
2022-11-30T10:29:18.855Z,11.14
2022-11-30T10:31:49.098Z,11.17
2022-11-30T10:34:21.181Z,11.17
2022-11-30T10:37:13.971Z,11.18
2022-11-30T10:39:58.937Z,11.22
2022-11-30T10:42:32.884Z,11.24
2022-11-30T10:45:00.558Z,11.27
2022-11-30T10:47:36.654Z,11.31
2022-11-30T10:50:07.875Z,11.36
2022-11-30T10:53:01.082Z,11.36
2022-11-30T10:55:36.271Z,11.40
2022-11-30T10:58:13.287Z,11.42
2022-11-30T11:00:39.788Z,11.42
2022-11-30T11:03:24.262Z,11.43
2022-11-30T11:06:20.942Z,11.46
2022-11-30T11:08:47.595Z,11.49
2022-11-30T11:11:37.370Z,11.51
2022-11-30T11:14:16.115Z,11.51
2022-11-30T11:16:57.157Z,11.50
2022-11-30T11:19:41.846Z,11.52
2022-11-30T11:22:21.694Z,11.55
2022-11-30T11:24:50.559Z,11.57
2022-11-30T11:27:31.900Z,11.62
2022-11-30T11:30:28.653Z,11.70
2022-11-30T11:33:13.623Z,11.78
2022-11-30T11:35:45.839Z,11.84
2022-11-30T11:38:27.105Z,11.89
2022-11-30T11:41:02.425Z,11.95
2022-11-30T11:43:32.272Z,12.01
2022-11-30T11:46:11.892Z,12.10
2022-11-30T11:48:46.010Z,12.20
2022-11-30T11:51:13.921Z,12.28
2022-11-30T11:53:53.625Z,12.33
2022-11-30T11:56:32.758Z,12.39
2022-11-30T11:59:32.160Z,12.41
2022-11-30T12:02:14.107Z,12.43
2022-11-30T12:04:41.455Z,12.44
2022-11-30T12:07:24.205Z,12.48
2022-11-30T12:10:02.990Z,12.53
2022-11-30T12:12:29.568Z,12.60
2022-11-30T12:14:56.670Z,12.66
2022-11-30T12:17:35.324Z,12.69
2022-11-30T12:20:18.328Z,12.75
2022-11-30T12:22:50.592Z,12.80
2022-11-30T12:25:27.654Z,12.86
2022-11-30T12:28:21.979Z,12.91
2022-11-30T12:30:51.392Z,12.96
2022-11-30T12:33:44.255Z,13.00
2022-11-30T12:36:31.654Z,13.07
2022-11-30T12:39:04.542Z,13.15
2022-11-30T12:41:51.403Z,13.21
2022-11-30T12:44:44.801Z,13.30
2022-11-30T12:47:20.956Z,13.36
2022-11-30T12:49:57.859Z,13.36
2022-11-30T12:52:58.377Z,13.35
2022-11-30T12:55:54.567Z,13.35
2022-11-30T12:58:36.309Z,13.36
2022-11-30T13:01:43.051Z,13.33
2022-11-30T13:04:19.353Z,13.31
2022-11-30T13:06:52.842Z,13.28
2022-11-30T13:09:30.180Z,13.25
2022-11-30T13:12:04.227Z,13.22
2022-11-30T13:14:33.631Z,13.19
2022-11-30T13:17:06.482Z,13.14
2022-11-30T13:19:39.848Z,13.12
2022-11-30T13:22:14.723Z,13.09
2022-11-30T13:24:47.880Z,13.07
2022-11-30T13:27:22.840Z,13.01
2022-11-30T13:29:54.820Z,12.98
2022-11-30T13:32:56.213Z,12.92
2022-11-30T13:35:29.876Z,12.88
2022-11-30T13:38:28.630Z,12.83
2022-11-30T13:40:58.340Z,12.80
2022-11-30T13:43:28.755Z,12.78
2022-11-30T13:46:05.945Z,12.76
2022-11-30T13:48:37.575Z,12.77
2022-11-30T13:51:04.998Z,12.77
2022-11-30T13:53:35.854Z,12.75
2022-11-30T13:56:05.654Z,12.72
2022-11-30T13:58:32.803Z,12.70
2022-11-30T14:01:23.401Z,12.68
2022-11-30T14:04:14.418Z,12.63
2022-11-30T14:06:51.237Z,12.61
2022-11-30T14:09:40.194Z,12.58
2022-11-30T14:12:31.658Z,12.58
2022-11-30T14:14:59.682Z,12.58
2022-11-30T14:17:27.992Z,12.54
2022-11-30T14:20:00.330Z,12.49
2022-11-30T14:22:29.618Z,12.47
2022-11-30T14:24:56.607Z,12.46
2022-11-30T14:27:25.116Z,12.46
2022-11-30T14:29:57.244Z,12.44
2022-11-30T14:32:48.882Z,12.40
2022-11-30T14:35:20.728Z,12.41
2022-11-30T14:37:56.054Z,12.39
2022-11-30T14:40:26.203Z,12.37
2022-11-30T14:42:55.957Z,12.32
2022-11-30T14:45:29.097Z,12.29
2022-11-30T14:48:17.853Z,12.27
2022-11-30T14:50:48.234Z,12.24
2022-11-30T14:53:55.266Z,12.20
2022-11-30T14:56:36.068Z,12.21
2022-11-30T14:59:49.328Z,12.18
2022-11-30T15:02:29.389Z,12.19
2022-11-30T15:04:57.883Z,12.16
2022-11-30T15:07:25.419Z,12.13
2022-11-30T15:10:08.971Z,12.09
2022-11-30T15:12:40.841Z,12.07
2022-11-30T15:15:15.912Z,12.03
2022-11-30T15:17:53.388Z,12.03
2022-11-30T15:20:38.777Z,12.03
2022-11-30T15:23:05.405Z,12.05
2022-11-30T15:25:39.056Z,12.07
2022-11-30T15:28:07.318Z,12.08
2022-11-30T15:30:38.498Z,12.09
2022-11-30T15:33:05.504Z,12.09
2022-11-30T15:35:50.372Z,12.07
2022-11-30T15:38:25.722Z,12.04
2022-11-30T15:41:03.117Z,12.03
2022-11-30T15:43:37.428Z,11.99
2022-11-30T15:46:04.875Z,11.98
2022-11-30T15:48:38.484Z,11.95
2022-11-30T15:51:05.869Z,11.94
2022-11-30T15:53:35.988Z,11.92
2022-11-30T15:56:08.686Z,11.88
2022-11-30T15:58:36.876Z,11.87
2022-11-30T16:01:14.179Z,11.83
2022-11-30T16:03:55.650Z,11.83
2022-11-30T16:06:35.080Z,11.82
2022-11-30T16:09:18.668Z,11.80
2022-11-30T16:11:53.847Z,11.78
2022-11-30T16:14:20.632Z,11.76
2022-11-30T16:16:47.969Z,11.75
2022-11-30T16:19:14.610Z,11.73
2022-11-30T16:21:41.462Z,11.72
2022-11-30T16:24:13.502Z,11.71
2022-11-30T16:26:55.610Z,11.69
2022-11-30T16:29:22.544Z,11.69
2022-11-30T16:31:49.198Z,11.66
2022-11-30T16:34:15.806Z,11.66
2022-11-30T16:36:43.336Z,11.66
2022-11-30T16:39:12.182Z,11.65
2022-11-30T16:41:38.765Z,11.63
2022-11-30T16:44:12.201Z,11.62
2022-11-30T16:46:38.646Z,11.63
2022-11-30T16:49:05.173Z,11.62
2022-11-30T16:51:36.189Z,11.64
2022-11-30T16:54:03.072Z,11.63
2022-11-30T16:56:29.665Z,11.63
2022-11-30T16:58:56.195Z,11.63
2022-11-30T17:01:35.096Z,11.63
2022-11-30T17:04:24.045Z,11.61
2022-11-30T17:06:53.649Z,11.63
2022-11-30T17:09:23.046Z,11.62
2022-11-30T17:11:50.930Z,11.63
2022-11-30T17:14:18.216Z,11.64
2022-11-30T17:16:44.825Z,11.64
2022-11-30T17:19:11.734Z,11.66
2022-11-30T17:21:40.111Z,11.66
2022-11-30T17:24:07.364Z,11.64
2022-11-30T17:26:33.977Z,11.66
2022-11-30T17:29:00.484Z,11.65
2022-11-30T17:31:27.173Z,11.67
2022-11-30T17:33:53.780Z,11.68
2022-11-30T17:36:20.362Z,11.69
2022-11-30T17:38:46.901Z,11.69
2022-11-30T17:41:19.096Z,11.69
2022-11-30T17:43:46.027Z,11.70
2022-11-30T17:46:15.759Z,11.70
2022-11-30T17:48:45.991Z,11.69
2022-11-30T17:51:14.653Z,11.69
2022-11-30T17:53:44.370Z,11.68
2022-11-30T17:56:19.553Z,11.66
2022-11-30T17:59:00.216Z,11.64
2022-11-30T18:01:29.590Z,11.62
2022-11-30T18:04:05.474Z,11.59
2022-11-30T18:06:40.886Z,11.55
2022-11-30T18:09:10.833Z,11.55
2022-11-30T18:11:40.664Z,11.52
2022-11-30T18:14:07.292Z,11.51
2022-11-30T18:16:37.144Z,11.50
2022-11-30T18:19:12.358Z,11.50
2022-11-30T18:21:40.244Z,11.50
2022-11-30T18:24:07.554Z,11.48
2022-11-30T18:26:35.537Z,11.48
2022-11-30T18:29:02.709Z,11.47
2022-11-30T18:31:31.269Z,11.44
2022-11-30T18:34:00.099Z,11.42
2022-11-30T18:36:27.196Z,11.39
2022-11-30T18:38:54.460Z,11.38
2022-11-30T18:41:22.931Z,11.37
2022-11-30T18:43:50.123Z,11.36
2022-11-30T18:46:16.647Z,11.36
2022-11-30T18:48:43.215Z,11.36
2022-11-30T18:51:21.075Z,11.34
2022-11-30T18:53:47.872Z,11.34
2022-11-30T18:56:17.793Z,11.32
2022-11-30T18:58:45.181Z,11.31
2022-11-30T19:01:18.205Z,11.30
2022-11-30T19:03:53.527Z,11.30
2022-11-30T19:06:21.004Z,11.31
2022-11-30T19:08:48.117Z,11.30
2022-11-30T19:11:15.555Z,11.31
2022-11-30T19:13:42.333Z,11.29
2022-11-30T19:16:15.808Z,11.28
2022-11-30T19:18:44.884Z,11.26
2022-11-30T19:21:14.239Z,11.26
2022-11-30T19:23:41.124Z,11.24
2022-11-30T19:26:09.903Z,11.24
2022-11-30T19:28:38.008Z,11.23
2022-11-30T19:31:16.014Z,11.22
2022-11-30T19:33:45.332Z,11.21
2022-11-30T19:36:14.952Z,11.20
2022-11-30T19:38:41.540Z,11.20
2022-11-30T19:41:09.782Z,11.21
2022-11-30T19:43:36.937Z,11.21
2022-11-30T19:46:18.763Z,11.23
2022-11-30T19:48:45.756Z,11.22
2022-11-30T19:51:18.033Z,11.21
2022-11-30T19:53:45.317Z,11.21
2022-11-30T19:56:17.341Z,11.21
2022-11-30T19:58:45.757Z,11.19
2022-11-30T20:01:19.352Z,11.19
2022-11-30T20:03:45.936Z,11.19
2022-11-30T20:06:12.455Z,11.17
2022-11-30T20:08:38.957Z,11.16
2022-11-30T20:11:07.004Z,11.13
2022-11-30T20:13:33.527Z,11.14
2022-11-30T20:16:06.451Z,11.13
2022-11-30T20:18:32.999Z,11.11
2022-11-30T20:21:16.690Z,11.08
2022-11-30T20:23:44.734Z,11.06
2022-11-30T20:26:30.091Z,11.06
2022-11-30T20:28:58.399Z,11.05
2022-11-30T20:31:26.236Z,11.04
2022-11-30T20:33:52.757Z,11.03
2022-11-30T20:36:20.670Z,11.02
2022-11-30T20:38:47.501Z,11.03
2022-11-30T20:41:20.019Z,11.03
2022-11-30T20:43:47.202Z,11.09
2022-11-30T20:46:19.203Z,11.16
2022-11-30T20:48:46.428Z,11.23
2022-11-30T20:51:30.603Z,11.29
2022-11-30T20:54:01.063Z,11.34
2022-11-30T20:56:27.775Z,11.39
2022-11-30T20:58:54.340Z,11.42
2022-11-30T21:01:22.254Z,11.42
2022-11-30T21:03:49.414Z,11.45
2022-11-30T21:06:16.823Z,11.49
2022-11-30T21:08:43.708Z,11.53
2022-11-30T21:11:16.229Z,11.56
2022-11-30T21:13:44.205Z,11.60
2022-11-30T21:16:11.958Z,11.61
2022-11-30T21:18:40.411Z,11.61
2022-11-30T21:21:13.211Z,11.61
2022-11-30T21:23:40.064Z,11.62
2022-11-30T21:26:08.760Z,11.61
2022-11-30T21:28:38.193Z,11.59
2022-11-30T21:31:05.927Z,11.56
2022-11-30T21:33:32.791Z,11.56
2022-11-30T21:36:01.491Z,11.52
2022-11-30T21:38:28.040Z,11.50
2022-11-30T21:40:59.902Z,11.52
2022-11-30T21:43:28.017Z,11.51
2022-11-30T21:46:03.230Z,11.52
2022-11-30T21:48:34.099Z,11.49
2022-11-30T21:51:08.711Z,11.49
2022-11-30T21:53:37.911Z,11.47
2022-11-30T21:56:13.555Z,11.43
2022-11-30T21:58:42.106Z,11.42
2022-11-30T22:01:12.632Z,11.40
2022-11-30T22:03:39.182Z,11.40
2022-11-30T22:06:12.779Z,11.36
2022-11-30T22:08:40.083Z,11.36
2022-11-30T22:11:10.455Z,11.34
2022-11-30T22:13:37.599Z,11.31
2022-11-30T22:16:12.657Z,11.29
2022-11-30T22:18:39.915Z,11.30
2022-11-30T22:21:14.621Z,11.28
2022-11-30T22:24:02.561Z,11.25
2022-11-30T22:26:30.588Z,11.25
2022-11-30T22:29:01.386Z,11.23
2022-11-30T22:31:33.975Z,11.22
2022-11-30T22:34:01.016Z,11.23
2022-11-30T22:36:30.437Z,11.23
2022-11-30T22:39:02.831Z,11.21
2022-11-30T22:41:30.094Z,11.20
2022-11-30T22:43:57.527Z,11.17
2022-11-30T22:46:28.487Z,11.14
2022-11-30T22:48:55.674Z,11.12
2022-11-30T22:51:24.918Z,11.11
2022-11-30T22:53:52.603Z,11.12
2022-11-30T22:56:27.699Z,11.12
2022-11-30T22:58:55.963Z,11.14
2022-11-30T23:01:31.458Z,11.13
2022-11-30T23:04:01.418Z,11.13
2022-11-30T23:06:28.008Z,11.13
2022-11-30T23:08:54.716Z,11.09
2022-11-30T23:11:24.019Z,11.04
2022-11-30T23:13:50.593Z,11.03
2022-11-30T23:16:18.223Z,10.99
2022-11-30T23:18:48.323Z,10.96
2022-11-30T23:21:24.267Z,10.97
2022-11-30T23:23:50.909Z,10.98
2022-11-30T23:26:26.026Z,10.98
2022-11-30T23:28:54.138Z,11.00
2022-11-30T23:31:33.513Z,11.00
2022-11-30T23:34:09.011Z,10.97
2022-11-30T23:36:36.754Z,10.95
2022-11-30T23:39:10.215Z,10.93
2022-11-30T23:41:36.864Z,10.91
2022-11-30T23:44:03.864Z,10.89
2022-11-30T23:46:31.101Z,10.88
2022-11-30T23:48:57.669Z,10.88
2022-11-30T23:51:24.701Z,10.85
2022-11-30T23:53:51.361Z,10.81
2022-11-30T23:56:19.823Z,10.80
2022-11-30T23:58:46.614Z,10.80
